Time;durP1;ratioP1;P1;durP2;ratioP2;P2;SDS_P1;SDS_P2;PMS_P1;PMS_P2;Temp;Humidity;BMP_temperature;BMP_pressure;BME280_temperature;BME280_humidity;BME280_pressure;Samples;Min_cycle;Max_cycle;Signal;HPM_P1;HPM_P2
2023/02/20 00:02:02;;;;;;;;;;;;;;;21.76;25.98;97664.59;5079939;28;798;-81
2023/02/20 00:04:28;;;;;;;;;;;;;;;21.99;25.63;97666.28;5078907;28;900;-81
2023/02/20 00:06:53;;;;;;;;;;;;;;;21.92;25.97;97660.88;5079567;28;1295;-81
2023/02/20 00:09:20;;;;;;;;;;;;;;;21.84;25.99;97649.75;5079118;28;1895;-81
2023/02/20 00:11:45;;;;;;;;;;;;;;;22.25;25.59;97650.84;5079133;28;867;-81
2023/02/20 00:14:11;;;;;;;;;;;;;;;22.03;25.74;97644.28;5094591;28;849;-81
2023/02/20 00:16:36;;;;;;;;;;;;;;;22.19;25.50;97646.22;5111146;28;886;-81
2023/02/20 00:19:02;;;;;;;;;;;;;;;22.04;25.75;97645.88;5095120;28;1199;-81
2023/02/20 00:21:27;;;;;;;;;;;;;;;22.08;25.54;97652.22;5078209;28;942;-81
2023/02/20 00:23:53;;;;;;;;;;;;;;;21.92;25.69;97643.88;5078426;28;862;-81
2023/02/20 00:26:18;;;;;;;;;;;;;;;22.04;25.61;97634.53;5079276;28;841;-81
2023/02/20 00:28:44;;;;;;;;;;;;;;;22.24;25.36;97635.09;5078187;28;1988;-81
2023/02/20 00:31:14;;;;;;;;;;;;;;;22.36;25.23;97639.13;5094606;28;1259;-81
2023/02/20 00:33:39;;;;;;;;;;;;;;;22.18;25.50;97631.25;5092761;28;1247;-81
2023/02/20 00:36:05;;;;;;;;;;;;;;;22.15;25.30;97629.31;5059749;28;968;-81
2023/02/20 00:38:30;;;;;;;;;;;;;;;22.02;25.79;97625.69;5042375;28;1245;-81
2023/02/20 00:40:56;;;;;;;;;;;;;;;22.49;25.04;97624.91;5076281;28;1367;-81
2023/02/20 00:43:21;;;;;;;;;;;;;;;22.48;25.18;97631.81;5059179;28;925;-81
2023/02/20 00:45:47;;;;;;;;;;;;;;;22.03;25.76;97638.63;5059820;28;1060;-81
2023/02/20 00:48:12;;;;;;;;;;;;;;;22.14;25.40;97644.75;5076239;28;1984;-81
2023/02/20 00:50:38;;;;;;;;;;;;;;;21.90;25.93;97646.34;5059354;28;1435;-81
2023/02/20 00:53:03;;;;;;;;;;;;;;;22.13;25.69;97637.50;5075671;28;882;-81
2023/02/20 00:55:28;;;;;;;;;;;;;;;22.18;25.51;97642.59;5059309;28;943;-81
2023/02/20 00:57:54;;;;;;;;;;;;;;;22.33;25.37;97646.50;5058763;28;955;-81
2023/02/20 01:00:22;;;;;;;;;;;;;;;22.11;25.61;97645.66;5075885;28;743;-81
2023/02/20 01:02:48;;;;;;;;;;;;;;;21.95;25.78;97648.59;5058785;28;861;-81
2023/02/20 01:05:13;;;;;;;;;;;;;;;21.96;25.80;97655.84;5075387;28;905;-81
2023/02/20 01:07:39;;;;;;;;;;;;;;;22.14;25.54;97650.41;5075854;28;1906;-81
2023/02/20 01:10:06;;;;;;;;;;;;;;;22.29;25.58;97654.34;5075571;28;1234;-81
2023/02/20 01:12:32;;;;;;;;;;;;;;;22.30;25.59;97658.75;5076821;28;1169;-81
2023/02/20 01:14:57;;;;;;;;;;;;;;;22.09;25.52;97665.13;5076492;28;1145;-81
2023/02/20 01:17:22;;;;;;;;;;;;;;;22.08;25.69;97669.22;5078087;28;821;-81
2023/02/20 01:19:48;;;;;;;;;;;;;;;22.10;25.33;97678.03;5076303;28;1216;-81
2023/02/20 01:22:13;;;;;;;;;;;;;;;22.23;25.44;97670.34;5076430;28;1289;-81
2023/02/20 01:24:42;;;;;;;;;;;;;;;22.14;25.73;97667.41;5076361;28;1263;-81
2023/02/20 01:27:07;;;;;;;;;;;;;;;22.41;25.35;97674.59;5076068;28;1407;-81
2023/02/20 01:29:34;;;;;;;;;;;;;;;22.03;25.63;97666.97;5109117;28;1906;-81
2023/02/20 01:32:00;;;;;;;;;;;;;;;21.97;25.81;97675.25;5092485;28;1168;-81
2023/02/20 01:34:25;;;;;;;;;;;;;;;22.04;25.84;97674.22;5109841;28;948;-81
2023/02/20 01:36:52;;;;;;;;;;;;;;;22.41;25.15;97668.94;5092840;28;845;-81
2023/02/20 01:39:24;;;;;;;;;;;;;;;22.26;25.40;97663.75;5092863;28;1226;-81
2023/02/20 01:41:51;;;;;;;;;;;;;;;22.47;25.19;97667.09;5092909;28;1250;-81
2023/02/20 01:44:20;;;;;;;;;;;;;;;22.03;25.56;97661.28;5092841;28;1315;-81
2023/02/20 01:46:47;;;;;;;;;;;;;;;22.14;25.26;97660.97;5076094;28;1573;-81
2023/02/20 01:49:14;;;;;;;;;;;;;;;22.04;25.65;97663.66;5092468;28;1917;-81
2023/02/20 01:51:50;;;;;;;;;;;;;;;22.39;25.63;97654.44;5109656;28;988;-81
2023/02/20 01:54:16;;;;;;;;;;;;;;;22.48;25.12;97648.81;5109386;28;726;-81
2023/02/20 01:56:41;;;;;;;;;;;;;;;22.09;25.48;97653.81;5076795;28;832;-81
2023/02/20 01:59:07;;;;;;;;;;;;;;;22.07;25.44;97661.94;5075722;28;1092;-81
2023/02/20 02:01:32;;;;;;;;;;;;;;;22.15;25.32;97657.66;5077020;28;742;-81
2023/02/20 02:03:59;;;;;;;;;;;;;;;22.01;25.54;97661.72;5109456;28;792;-81
2023/02/20 02:06:24;;;;;;;;;;;;;;;22.42;25.20;97664.84;5092876;28;1239;-81
2023/02/20 02:08:50;;;;;;;;;;;;;;;22.49;24.92;97650.44;5076518;28;1967;-81
2023/02/20 02:11:18;;;;;;;;;;;;;;;22.31;25.55;97651.84;5075652;28;1132;-81
2023/02/20 02:13:43;;;;;;;;;;;;;;;22.21;25.66;97649.38;5092327;28;1198;-81
2023/02/20 02:16:27;;;;;;;;;;;;;;;21.92;25.77;97655.19;5077227;28;885;-81
2023/02/20 02:18:59;;;;;;;;;;;;;;;22.11;25.60;97645.66;5076488;28;907;-80
2023/02/20 02:21:31;;;;;;;;;;;;;;;22.48;25.25;97651.66;5075481;28;1192;-81
2023/02/20 02:24:02;;;;;;;;;;;;;;;22.30;25.25;97650.25;5074279;28;929;-81
2023/02/20 02:26:33;;;;;;;;;;;;;;;21.99;25.74;97649.28;5074793;28;993;-81
2023/02/20 02:29:16;;;;;;;;;;;;;;;22.15;25.76;97663.34;5074180;28;1985;-81
2023/02/20 02:31:57;;;;;;;;;;;;;;;22.17;25.36;97649.47;5074621;28;1169;-81
2023/02/20 02:34:28;;;;;;;;;;;;;;;22.40;25.11;97656.00;5074145;28;931;-81
2023/02/20 02:37:00;;;;;;;;;;;;;;;22.47;24.99;97656.53;5074619;28;1166;-81
2023/02/20 02:39:31;;;;;;;;;;;;;;;22.28;25.65;97655.59;5091133;28;860;-81
2023/02/20 02:42:04;;;;;;;;;;;;;;;22.04;25.55;97652.34;5074493;28;793;-81
2023/02/20 02:44:40;;;;;;;;;;;;;;;22.10;25.44;97663.88;5094568;28;873;-81
2023/02/20 02:47:14;;;;;;;;;;;;;;;22.27;25.36;97664.53;5095076;28;902;-81
2023/02/20 02:49:39;;;;;;;;;;;;;;;22.59;24.88;97666.28;5094540;28;1967;-81
2023/02/20 02:52:05;;;;;;;;;;;;;;;22.54;24.84;97670.47;5078804;28;1212;-81
2023/02/20 02:54:30;;;;;;;;;;;;;;;22.41;24.98;97666.88;5095049;28;1279;-81
2023/02/20 02:57:15;;;;;;;;;;;;;;;22.18;25.56;97662.44;5079169;28;1239;-81
2023/02/20 02:59:41;;;;;;;;;;;;;;;21.99;25.84;97663.44;5079060;28;1136;-81
2023/02/20 03:02:08;;;;;;;;;;;;;;;22.22;25.51;97674.41;5078867;28;892;-81
2023/02/20 03:04:34;;;;;;;;;;;;;;;22.54;24.80;97689.53;5078948;28;871;-81
2023/02/20 03:07:02;;;;;;;;;;;;;;;22.28;25.31;97712.28;5079729;28;1132;-81
2023/02/20 03:09:28;;;;;;;;;;;;;;;22.15;25.45;97720.00;5061961;28;1985;-81
2023/02/20 03:11:54;;;;;;;;;;;;;;;22.14;25.59;97721.25;5078411;28;854;-81
2023/02/20 03:17:25;;;;;;;;;;;;;;;21.78;25.91;97711.06;5091682;28;969;-81
2023/02/20 03:19:51;;;;;;;;;;;;;;;22.26;25.33;97711.94;5094384;28;1842;-81
2023/02/20 03:22:18;;;;;;;;;;;;;;;22.50;25.11;97731.38;5077054;28;946;-81
2023/02/20 03:24:56;;;;;;;;;;;;;;;22.21;25.38;97738.00;5076914;28;864;-81
2023/02/20 03:27:27;;;;;;;;;;;;;;;21.93;25.80;97741.75;5046289;28;1079;-81
2023/02/20 03:29:54;;;;;;;;;;;;;;;21.95;25.76;97754.22;5020595;28;1977;-81
2023/02/20 03:43:25;;;;;;;;;;;;;;;22.19;25.24;97834.03;5000914;28;1186;-81
2023/02/20 03:45:58;;;;;;;;;;;;;;;21.92;26.21;97845.00;4986189;28;1212;-81
2023/02/20 03:48:23;;;;;;;;;;;;;;;22.11;25.97;97849.66;4980686;28;1977;-81
2023/02/20 03:50:49;;;;;;;;;;;;;;;22.28;25.45;97859.66;4997559;28;1199;-81
2023/02/20 03:53:14;;;;;;;;;;;;;;;22.13;25.50;97857.75;4965215;28;1104;-81
2023/02/20 03:55:40;;;;;;;;;;;;;;;21.98;25.92;97875.13;4996380;28;1076;-80
2023/02/20 03:58:10;;;;;;;;;;;;;;;21.93;25.84;97889.06;4997356;28;1416;-81
2023/02/20 04:00:38;;;;;;;;;;;;;;;21.95;25.79;97892.22;4996489;28;1004;-81
2023/02/20 04:03:05;;;;;;;;;;;;;;;22.36;25.24;97889.38;4980944;28;1182;-81
2023/02/20 04:05:36;;;;;;;;;;;;;;;22.07;25.66;97878.09;4980575;28;1407;-81
2023/02/20 04:08:04;;;;;;;;;;;;;;;21.97;25.96;97872.75;4979922;28;1910;-81
2023/02/20 04:10:34;;;;;;;;;;;;;;;21.92;25.80;97868.44;4980266;28;1511;-81
2023/02/20 04:12:59;;;;;;;;;;;;;;;21.93;26.01;97877.72;4985507;28;1211;-81
2023/02/20 04:15:25;;;;;;;;;;;;;;;22.10;25.64;97879.22;5003286;28;1122;-80
2023/02/20 04:17:54;;;;;;;;;;;;;;;22.18;25.55;97882.69;5059782;28;1130;-81
2023/02/20 04:20:19;;;;;;;;;;;;;;;22.23;25.36;97884.94;5059906;28;1279;-81
2023/02/20 04:22:56;;;;;;;;;;;;;;;22.12;25.61;97899.41;5076976;28;1378;-81
2023/02/20 04:25:40;;;;;;;;;;;;;;;22.00;25.84;97905.84;5060599;28;1127;-81
2023/02/20 04:28:06;;;;;;;;;;;;;;;22.38;25.35;97924.97;5077798;28;1975;-81
2023/02/20 04:30:42;;;;;;;;;;;;;;;22.41;25.04;97926.91;5061525;28;1459;-81
2023/02/20 04:33:12;;;;;;;;;;;;;;;21.95;25.47;97931.91;5067710;28;1316;-81
2023/02/20 04:35:38;;;;;;;;;;;;;;;21.90;25.77;97935.28;5081090;28;1235;-81
2023/02/20 04:38:04;;;;;;;;;;;;;;;21.85;25.90;97923.25;5090288;28;825;-81
2023/02/20 04:40:30;;;;;;;;;;;;;;;22.04;25.69;97929.19;5090797;28;1078;-81
2023/02/20 04:42:55;;;;;;;;;;;;;;;22.09;25.66;97923.78;5073701;28;1257;-81
2023/02/20 04:45:21;;;;;;;;;;;;;;;22.30;25.05;97936.53;5056844;28;1090;-81
2023/02/20 04:47:46;;;;;;;;;;;;;;;21.85;25.54;97945.91;5039291;28;1976;-81
2023/02/20 04:50:32;;;;;;;;;;;;;;;21.83;25.89;97948.41;5022815;28;1333;-81
2023/02/20 04:52:57;;;;;;;;;;;;;;;21.58;26.26;97951.94;5055329;28;1228;-81
2023/02/20 04:55:24;;;;;;;;;;;;;;;22.05;25.54;97944.94;5055745;28;1247;-81
2023/02/20 04:57:56;;;;;;;;;;;;;;;22.35;24.85;97950.16;5072374;28;1203;-80
2023/02/20 05:00:23;;;;;;;;;;;;;;;22.14;25.13;97950.00;5039150;28;1195;-81
2023/02/20 05:02:48;;;;;;;;;;;;;;;21.85;25.71;97957.25;5038675;28;784;-80
2023/02/20 05:05:15;;;;;;;;;;;;;;;21.67;25.72;97962.63;5055313;28;981;-81
2023/02/20 05:07:41;;;;;;;;;;;;;;;21.89;25.92;97956.34;5038043;28;1910;-80
2023/02/20 05:10:06;;;;;;;;;;;;;;;22.18;25.11;97962.81;5038278;28;958;-81
2023/02/20 05:12:32;;;;;;;;;;;;;;;22.34;24.74;97965.56;5071568;28;1031;-81
2023/02/20 05:14:57;;;;;;;;;;;;;;;21.92;25.39;97972.47;5071373;28;865;-81
2023/02/20 05:17:22;;;;;;;;;;;;;;;21.64;25.90;97974.81;5038322;28;1484;-80
2023/02/20 05:19:48;;;;;;;;;;;;;;;21.79;25.41;97976.03;5056587;28;920;-81
2023/02/20 05:22:20;;;;;;;;;;;;;;;22.24;25.02;97989.34;5057244;28;847;-81
2023/02/20 05:24:46;;;;;;;;;;;;;;;22.13;25.17;97988.09;5087742;28;820;-80
2023/02/20 05:27:13;;;;;;;;;;;;;;;22.01;25.07;98006.59;5089584;28;820;-80
2023/02/20 05:29:52;;;;;;;;;;;;;;;21.80;25.38;98005.16;5055813;28;1987;-81
2023/02/20 05:32:18;;;;;;;;;;;;;;;21.75;25.39;98009.31;5057088;28;955;-81
2023/02/20 05:34:43;;;;;;;;;;;;;;;22.16;25.23;98030.47;5089497;28;872;-81
2023/02/20 05:37:10;;;;;;;;;;;;;;;21.98;25.24;98033.00;5056990;28;861;-81
2023/02/20 05:39:36;;;;;;;;;;;;;;;22.03;25.14;98033.25;5071897;28;857;-80
2023/02/20 05:42:01;;;;;;;;;;;;;;;21.89;25.37;98042.13;5088814;28;1185;-80
2023/02/20 05:44:27;;;;;;;;;;;;;;;21.59;25.75;98035.63;5056874;28;811;-81
2023/02/20 05:46:54;;;;;;;;;;;;;;;22.14;24.95;98049.97;5056921;28;791;-81
2023/02/20 05:49:19;;;;;;;;;;;;;;;22.24;24.87;98063.06;5056590;28;1905;-80
2023/02/20 05:51:45;;;;;;;;;;;;;;;22.39;24.49;98074.00;5056676;28;918;-80
2023/02/20 05:54:10;;;;;;;;;;;;;;;21.98;25.22;98067.00;5088834;28;891;-81
2023/02/20 05:56:39;;;;;;;;;;;;;;;21.76;25.19;98073.22;5072563;28;1152;-81
2023/02/20 05:59:05;;;;;;;;;;;;;;;21.62;25.64;98090.59;5088798;28;755;-81
2023/02/20 06:01:30;;;;;;;;;;;;;;;21.99;24.88;98079.91;5056502;28;924;-81
2023/02/20 06:03:56;;;;;;;;;;;;;;;22.20;24.81;98087.84;5088931;28;943;-81
2023/02/20 06:06:21;;;;;;;;;;;;;;;22.26;24.52;98094.56;5072214;28;1514;-81
2023/02/20 06:08:47;;;;;;;;;;;;;;;22.21;24.73;98114.94;5055066;28;1985;-80
2023/02/20 06:11:13;;;;;;;;;;;;;;;22.16;24.64;98124.00;5056389;28;716;-80
2023/02/20 06:13:39;;;;;;;;;;;;;;;21.98;24.98;98124.44;5088509;28;847;-78
2023/02/20 06:16:05;;;;;;;;;;;;;;;21.92;25.17;98134.72;5089011;28;777;-78
2023/02/20 06:18:30;;;;;;;;;;;;;;;22.02;24.89;98152.66;5055623;28;922;-78
2023/02/20 06:20:55;;;;;;;;;;;;;;;22.15;25.06;98162.09;5056257;28;796;-78
2023/02/20 06:23:21;;;;;;;;;;;;;;;22.46;24.35;98164.50;5056150;28;874;-78
2023/02/20 06:25:46;;;;;;;;;;;;;;;22.11;24.53;98161.38;5055859;28;1042;-78
2023/02/20 06:28:12;;;;;;;;;;;;;;;21.99;24.98;98164.91;5056154;28;1910;-77
2023/02/20 06:30:37;;;;;;;;;;;;;;;21.89;24.99;98161.09;5088045;28;771;-78
2023/02/20 06:33:03;;;;;;;;;;;;;;;22.14;24.96;98166.16;5056523;28;871;-78
2023/02/20 06:35:28;;;;;;;;;;;;;;;22.25;24.56;98155.34;5056201;28;760;-78
2023/02/20 06:37:54;;;;;;;;;;;;;;;22.33;24.69;98173.75;5088664;28;797;-78
2023/02/20 06:40:19;;;;;;;;;;;;;;;22.07;24.64;98167.13;5055883;28;945;-78
2023/02/20 06:42:45;;;;;;;;;;;;;;;21.98;24.82;98169.00;5056240;28;842;-78
2023/02/20 06:45:10;;;;;;;;;;;;;;;21.81;24.97;98169.00;5056508;28;909;-78
2023/02/20 06:47:35;;;;;;;;;;;;;;;22.12;24.87;98156.50;5056268;28;759;-78
2023/02/20 06:50:01;;;;;;;;;;;;;;;22.26;24.34;98161.81;5056213;28;1979;-78
2023/02/20 06:52:27;;;;;;;;;;;;;;;22.40;24.19;98157.78;5070555;28;1274;-78
2023/02/20 06:54:53;;;;;;;;;;;;;;;22.05;24.60;98157.47;5088479;28;1285;-78
2023/02/20 06:57:18;;;;;;;;;;;;;;;22.06;24.52;98170.38;5077121;28;1322;-78
2023/02/20 06:59:46;;;;;;;;;;;;;;;22.02;24.50;98181.00;5093650;28;912;-78
2023/02/20 07:02:11;;;;;;;;;;;;;;;22.28;24.28;98188.47;5060832;28;893;-78
2023/02/20 07:04:37;;;;;;;;;;;;;;;22.22;24.51;98184.56;5059753;28;894;-78
2023/02/20 07:07:03;;;;;;;;;;;;;;;22.27;24.23;98186.84;5076884;28;1105;-78
2023/02/20 07:09:28;;;;;;;;;;;;;;;22.02;24.76;98186.66;5076743;28;1977;-78
2023/02/20 07:11:53;;;;;;;;;;;;;;;21.83;24.79;98189.16;5093449;28;913;-78
2023/02/20 07:14:19;;;;;;;;;;;;;;;21.83;24.94;98194.84;5060363;28;1190;-78
2023/02/20 07:16:45;;;;;;;;;;;;;;;22.28;24.15;98199.81;5094088;28;928;-78
2023/02/20 07:19:10;;;;;;;;;;;;;;;22.31;24.07;98195.28;5076778;28;924;-78
2023/02/20 07:21:35;;;;;;;;;;;;;;;21.93;24.45;98203.53;5093701;28;889;-78
2023/02/20 07:24:01;;;;;;;;;;;;;;;21.83;24.87;98203.34;5093328;28;953;-78
2023/02/20 07:26:27;;;;;;;;;;;;;;;21.62;24.84;98208.72;5093349;28;954;-78
2023/02/20 07:28:52;;;;;;;;;;;;;;;21.97;24.72;98205.03;5058976;28;1979;-78
2023/02/20 07:31:18;;;;;;;;;;;;;;;22.04;24.34;98219.00;5073832;28;1219;-78
2023/02/20 07:33:43;;;;;;;;;;;;;;;22.00;24.49;98217.50;5057687;28;866;-78
2023/02/20 07:36:09;;;;;;;;;;;;;;;22.04;24.28;98221.03;5091361;28;851;-78
2023/02/20 07:38:35;;;;;;;;;;;;;;;22.04;24.38;98223.88;5090670;28;902;-78
2023/02/20 07:41:00;;;;;;;;;;;;;;;21.95;24.32;98232.19;5091476;28;778;-78
2023/02/20 07:43:25;;;;;;;;;;;;;;;22.24;24.16;98233.13;5059064;28;762;-78
2023/02/20 07:45:51;;;;;;;;;;;;;;;22.28;24.01;98250.03;5059007;28;731;-78
2023/02/20 07:48:16;;;;;;;;;;;;;;;22.01;24.21;98241.75;5058932;28;1914;-78
2023/02/20 07:50:42;;;;;;;;;;;;;;;22.18;24.43;98249.06;5058686;28;815;-79
2023/02/20 07:53:08;;;;;;;;;;;;;;;21.97;24.32;98252.41;5058703;28;903;-78
2023/02/20 07:55:34;;;;;;;;;;;;;;;22.05;24.30;98254.59;5079565;28;937;-78
2023/02/20 07:57:59;;;;;;;;;;;;;;;22.15;24.42;98252.78;5096478;28;898;-78
2023/02/20 08:00:25;;;;;;;;;;;;;;;22.25;24.09;98262.25;5096867;28;982;-78
2023/02/20 08:02:50;;;;;;;;;;;;;;;22.18;24.04;98265.28;5063429;28;1261;-78
2023/02/20 08:05:16;;;;;;;;;;;;;;;21.96;24.44;98273.44;5079477;28;852;-79
2023/02/20 08:07:45;;;;;;;;;;;;;;;21.99;24.31;98283.91;5096478;28;1906;-78
2023/02/20 08:10:11;;;;;;;;;;;;;;;22.20;24.09;98285.47;5062679;28;959;-78
2023/02/20 08:12:36;;;;;;;;;;;;;;;22.20;24.30;98285.47;5079720;28;830;-78
2023/02/20 08:15:02;;;;;;;;;;;;;;;22.21;23.85;98296.34;5079297;28;986;-78
2023/02/20 08:17:27;;;;;;;;;;;;;;;21.97;24.34;98303.41;5096463;28;920;-78
2023/02/20 08:19:53;;;;;;;;;;;;;;;21.94;24.52;98307.91;5096318;28;800;-78
2023/02/20 08:22:18;;;;;;;;;;;;;;;22.19;24.14;98310.19;5096046;28;973;-78
2023/02/20 08:24:43;;;;;;;;;;;;;;;22.17;24.24;98312.63;5096032;28;960;-78
2023/02/20 08:27:09;;;;;;;;;;;;;;;22.27;23.95;98311.56;5049906;28;1604;-78
2023/02/20 08:29:34;;;;;;;;;;;;;;;22.00;24.30;98308.97;5090460;28;1905;-78
2023/02/20 08:32:00;;;;;;;;;;;;;;;21.90;24.27;98317.72;5058451;28;866;-78
2023/02/20 08:34:25;;;;;;;;;;;;;;;21.71;24.64;98325.00;5058376;28;852;-78
2023/02/20 08:36:51;;;;;;;;;;;;;;;22.15;23.98;98326.47;5058096;28;870;-78
2023/02/20 08:39:16;;;;;;;;;;;;;;;22.24;23.92;98328.69;5056732;28;1116;-78
2023/02/20 08:41:42;;;;;;;;;;;;;;;22.36;23.71;98314.59;5057935;28;876;-78
2023/02/20 08:44:08;;;;;;;;;;;;;;;22.14;24.00;98313.53;5057586;28;848;-78
2023/02/20 08:46:33;;;;;;;;;;;;;;;22.04;24.04;98314.56;5056932;28;1137;-78
2023/02/20 08:48:59;;;;;;;;;;;;;;;22.10;24.15;98318.44;5089129;28;1913;-78
2023/02/20 08:51:25;;;;;;;;;;;;;;;22.35;23.72;98335.69;5057638;28;857;-78
2023/02/20 08:53:50;;;;;;;;;;;;;;;22.25;24.07;98333.91;5089682;28;775;-78
2023/02/20 08:56:17;;;;;;;;;;;;;;;22.03;23.96;98335.63;5073345;28;896;-78
2023/02/20 08:58:42;;;;;;;;;;;;;;;22.10;23.95;98349.63;5056376;28;948;-78
2023/02/20 09:01:08;;;;;;;;;;;;;;;21.79;24.63;98361.22;5057361;28;854;-78
2023/02/20 09:03:37;;;;;;;;;;;;;;;22.20;23.98;98351.44;5057181;28;846;-78
2023/02/20 09:06:03;;;;;;;;;;;;;;;22.44;23.67;98348.47;5088696;28;1077;-78
2023/02/20 09:08:29;;;;;;;;;;;;;;;22.04;23.89;98345.72;5088562;28;1985;-78
2023/02/20 09:10:54;;;;;;;;;;;;;;;22.03;24.08;98344.13;5089511;28;914;-78
2023/02/20 09:13:19;;;;;;;;;;;;;;;21.91;24.25;98356.13;5056919;28;860;-78
2023/02/20 09:15:45;;;;;;;;;;;;;;;22.19;23.87;98349.84;5057266;28;854;-78
2023/02/20 09:18:11;;;;;;;;;;;;;;;22.28;23.75;98369.91;5057225;28;908;-78
2023/02/20 09:20:36;;;;;;;;;;;;;;;22.22;23.87;98365.97;5089421;28;782;-78
2023/02/20 09:23:02;;;;;;;;;;;;;;;21.87;24.18;98367.56;5089590;28;878;-78
2023/02/20 09:25:27;;;;;;;;;;;;;;;22.00;24.25;98371.28;5089387;28;834;-78
2023/02/20 09:27:53;;;;;;;;;;;;;;;21.90;24.33;98380.03;5057037;28;1905;-78
2023/02/20 09:30:19;;;;;;;;;;;;;;;22.31;23.70;98371.03;5057356;28;961;-78
2023/02/20 09:32:49;;;;;;;;;;;;;;;22.16;23.84;98370.56;5072508;28;887;-78
2023/02/20 09:35:18;;;;;;;;;;;;;;;22.23;23.61;98378.13;5088904;28;796;-78
2023/02/20 09:37:44;;;;;;;;;;;;;;;22.19;23.84;98383.88;5056918;28;806;-78
2023/02/20 09:40:09;;;;;;;;;;;;;;;22.04;24.00;98376.91;5057204;28;802;-78
2023/02/20 09:42:38;;;;;;;;;;;;;;;21.81;24.15;98372.13;5057007;28;902;-78
2023/02/20 09:45:03;;;;;;;;;;;;;;;22.08;23.89;98375.56;5091403;28;1341;-78
2023/02/20 09:47:32;;;;;;;;;;;;;;;22.34;23.47;98379.47;5074064;28;972;-78
2023/02/20 09:50:00;;;;;;;;;;;;;;;21.90;23.88;98371.53;5057679;28;1972;-78
2023/02/20 09:52:26;;;;;;;;;;;;;;;21.98;23.82;98373.00;5057016;28;920;-78
2023/02/20 09:54:53;;;;;;;;;;;;;;;21.96;23.83;98373.41;5073921;28;830;-78
2023/02/20 09:57:20;;;;;;;;;;;;;;;22.32;23.58;98370.59;5057478;28;1042;-78
2023/02/20 09:59:49;;;;;;;;;;;;;;;22.35;23.44;98380.25;5074258;28;1108;-78
2023/02/20 10:02:22;;;;;;;;;;;;;;;22.25;23.43;98382.09;5057816;28;762;-78
2023/02/20 10:04:48;;;;;;;;;;;;;;;22.00;24.03;98382.63;5057246;28;959;-78
2023/02/20 10:07:20;;;;;;;;;;;;;;;21.90;24.11;98377.19;5057315;28;1143;-78
2023/02/20 10:09:45;;;;;;;;;;;;;;;22.02;23.69;98385.00;5073830;28;1906;-78
2023/02/20 10:12:11;;;;;;;;;;;;;;;22.12;23.70;98367.00;5057533;28;1099;-78
2023/02/20 10:14:36;;;;;;;;;;;;;;;22.32;23.57;98372.63;5073912;28;848;-78
2023/02/20 10:17:17;;;;;;;;;;;;;;;22.11;23.60;98368.25;5070584;28;885;-78
2023/02/20 10:19:42;;;;;;;;;;;;;;;21.89;23.77;98384.09;5076244;28;912;-78
2023/02/20 10:22:19;;;;;;;;;;;;;;;22.03;23.84;98380.97;5076851;28;844;-78
2023/02/20 10:24:54;;;;;;;;;;;;;;;22.49;22.99;98381.97;5074835;28;865;-78
2023/02/20 10:27:39;;;;;;;;;;;;;;;22.30;23.31;98384.41;5075911;28;886;-78
2023/02/20 10:30:05;;;;;;;;;;;;;;;22.11;23.30;98376.75;5076066;28;1977;-78
2023/02/20 10:32:34;;;;;;;;;;;;;;;22.11;23.61;98376.75;5076233;28;851;-78
2023/02/20 10:35:10;;;;;;;;;;;;;;;21.93;23.82;98377.13;5075031;28;944;-78
2023/02/20 10:37:54;;;;;;;;;;;;;;;22.19;23.57;98378.19;5074922;28;916;-78
2023/02/20 10:40:27;;;;;;;;;;;;;;;22.40;23.32;98376.91;5075021;28;794;-78
2023/02/20 10:43:09;;;;;;;;;;;;;;;21.99;23.61;98375.38;5074935;28;907;-78
2023/02/20 10:45:53;;;;;;;;;;;;;;;22.02;23.86;98385.84;5075160;28;852;-78
2023/02/20 10:48:18;;;;;;;;;;;;;;;21.91;23.70;98379.59;5075915;28;1910;-79
2023/02/20 10:50:50;;;;;;;;;;;;;;;22.30;23.29;98378.75;5075984;28;746;-78
2023/02/20 10:53:27;;;;;;;;;;;;;;;22.20;23.43;98379.00;5076512;28;903;-78
2023/02/20 10:55:55;;;;;;;;;;;;;;;21.93;23.98;98379.16;5075211;28;787;-78
2023/02/20 10:58:35;;;;;;;;;;;;;;;21.95;23.92;98379.53;5074741;28;763;-78
2023/02/20 11:01:08;;;;;;;;;;;;;;;21.78;23.86;98390.81;5075053;28;909;-78
2023/02/20 11:03:33;;;;;;;;;;;;;;;22.33;23.30;98380.72;5074691;28;835;-78
2023/02/20 11:06:00;;;;;;;;;;;;;;;21.95;23.75;98390.84;5079679;28;1032;-78
2023/02/20 11:08:25;;;;;;;;;;;;;;;22.05;23.49;98389.81;5078486;28;1989;-78
2023/02/20 11:10:52;;;;;;;;;;;;;;;21.93;23.62;98384.84;5077191;28;1001;-78
2023/02/20 11:13:19;;;;;;;;;;;;;;;21.94;23.76;98383.59;5060422;28;968;-78
2023/02/20 11:15:44;;;;;;;;;;;;;;;21.87;23.71;98378.09;5060481;28;865;-78
2023/02/20 11:18:20;;;;;;;;;;;;;;;22.20;23.38;98376.16;5057274;28;925;-78
2023/02/20 11:20:45;;;;;;;;;;;;;;;22.24;23.37;98369.16;5040405;28;962;-78
2023/02/20 11:23:29;;;;;;;;;;;;;;;22.06;23.38;98369.53;5040322;28;802;-78
2023/02/20 11:25:55;;;;;;;;;;;;;;;21.91;23.57;98370.28;5056940;28;912;-78
2023/02/20 11:28:23;;;;;;;;;;;;;;;21.90;23.81;98371.53;5040267;28;2051;-78
2023/02/20 11:30:50;;;;;;;;;;;;;;;22.14;23.42;98358.88;5040280;28;870;-78
2023/02/20 11:33:20;;;;;;;;;;;;;;;22.08;23.64;98369.91;5054030;28;934;-78
2023/02/20 11:35:49;;;;;;;;;;;;;;;22.18;23.55;98376.59;5040218;28;895;-78
2023/02/20 11:38:17;;;;;;;;;;;;;;;21.78;23.98;98385.13;5040264;28;895;-78
2023/02/20 11:40:42;;;;;;;;;;;;;;;21.94;23.65;98386.44;5056778;28;920;-78
2023/02/20 11:43:21;;;;;;;;;;;;;;;21.92;23.91;98403.06;5040423;28;1112;-78
2023/02/20 11:45:46;;;;;;;;;;;;;;;22.42;23.03;98396.28;5056516;28;894;-78
2023/02/20 11:48:13;;;;;;;;;;;;;;;22.50;22.97;98397.72;5059214;28;1977;-78
2023/02/20 11:50:39;;;;;;;;;;;;;;;22.02;23.55;98396.34;5077799;28;759;-78
2023/02/20 11:53:06;;;;;;;;;;;;;;;22.15;23.58;98391.66;5061228;28;1597;-78
2023/02/20 11:55:31;;;;;;;;;;;;;;;21.85;23.98;98392.69;5061098;28;1149;-78
2023/02/20 11:57:57;;;;;;;;;;;;;;;22.18;23.49;98399.28;5077507;28;865;-78
2023/02/20 12:00:26;;;;;;;;;;;;;;;22.09;23.67;98390.53;5079251;28;1056;-78
2023/02/20 12:02:53;;;;;;;;;;;;;;;21.97;23.75;98399.72;5078001;28;824;-78
2023/02/20 12:05:19;;;;;;;;;;;;;;;22.01;23.48;98394.75;5077540;28;1186;-78
2023/02/20 12:07:44;;;;;;;;;;;;;;;22.08;23.74;98400.28;5078748;28;1048;-78
2023/02/20 12:10:22;;;;;;;;;;;;;;;22.05;23.52;98401.16;5078569;28;1909;-78
2023/02/20 12:12:47;;;;;;;;;;;;;;;22.39;23.15;98402.88;5077245;28;883;-78
2023/02/20 12:15:16;;;;;;;;;;;;;;;22.26;23.28;98403.53;5077834;28;897;-78
2023/02/20 12:17:50;;;;;;;;;;;;;;;21.97;23.58;98405.41;5077133;28;1135;-78
2023/02/20 12:20:18;;;;;;;;;;;;;;;22.01;23.53;98406.09;5078384;28;858;-78
2023/02/20 12:22:50;;;;;;;;;;;;;;;21.70;24.04;98406.34;5077340;28;938;-78
2023/02/20 12:25:20;;;;;;;;;;;;;;;22.25;23.23;98398.31;5077662;28;1394;-78
2023/02/20 12:27:55;;;;;;;;;;;;;;;22.59;22.90;98392.25;5078330;28;947;-78
2023/02/20 12:30:26;;;;;;;;;;;;;;;22.15;23.35;98394.47;5076819;28;848;-78
2023/02/20 12:33:14;;;;;;;;;;;;;;;21.97;23.59;98405.41;5060068;28;992;-78
2023/02/20 12:36:00;;;;;;;;;;;;;;;21.87;23.62;98412.09;5076772;28;1038;-78
2023/02/20 12:38:52;;;;;;;;;;;;;;;22.01;23.68;98414.59;5076829;28;900;-79
2023/02/20 12:41:23;;;;;;;;;;;;;;;22.19;23.46;98417.88;5036073;28;989;-78
2023/02/20 12:43:50;;;;;;;;;;;;;;;22.23;23.23;98424.28;5035495;28;934;-78
2023/02/20 12:46:23;;;;;;;;;;;;;;;22.10;23.27;98414.81;5035627;28;894;-78
2023/02/20 12:48:48;;;;;;;;;;;;;;;21.95;23.51;98424.84;5035423;28;1894;-78
2023/02/20 12:51:13;;;;;;;;;;;;;;;22.04;23.46;98434.38;5019116;28;1294;-78
2023/02/20 12:53:42;;;;;;;;;;;;;;;22.15;23.22;98427.69;5035465;28;953;-78
2023/02/20 12:56:16;;;;;;;;;;;;;;;22.04;23.48;98422.22;5036117;28;846;-78
2023/02/20 12:58:46;;;;;;;;;;;;;;;22.01;23.73;98421.06;5035201;28;888;-78
2023/02/20 13:01:12;;;;;;;;;;;;;;;21.98;23.68;98419.13;5018819;28;1020;-79
2023/02/20 13:03:50;;;;;;;;;;;;;;;22.24;23.22;98425.88;5035851;28;845;-78
2023/02/20 13:06:33;;;;;;;;;;;;;;;22.25;23.44;98423.81;5018304;28;1217;-78
2023/02/20 13:09:17;;;;;;;;;;;;;;;22.00;23.49;98421.50;5035072;28;1914;-78
2023/02/20 13:11:43;;;;;;;;;;;;;;;22.01;23.44;98429.56;5002285;28;1458;-78
2023/02/20 13:14:11;;;;;;;;;;;;;;;22.12;23.33;98423.69;5035402;28;1021;-78
2023/02/20 13:16:59;;;;;;;;;;;;;;;22.45;22.98;98429.44;5034880;28;951;-78
2023/02/20 13:19:43;;;;;;;;;;;;;;;22.58;22.96;98416.94;5076381;28;778;-78
2023/02/20 13:22:09;;;;;;;;;;;;;;;21.92;23.57;98403.06;5077603;28;846;-78